Terminal Aerodrome Forecast
Issued by NWS Grand Forks, ND

Home | Current Version | Previous Version | Graphics & Text | Print | Product List | Glossary On
Versions: 1 2 3 4 5 6 7 8 9 10 11 12 13 14 15 16
387
FTUS43 KFGF 202320
TAFFAR
TAF
KFAR 202320Z 2100/2124 17020G29KT P6SM BKN250
     FM211100 18016G24KT P6SM BKN110 WS020/18050KT
     FM211400 21013KT P6SM BKN100
     FM211600 24012KT P6SM BKN100
     FM211800 28012KT P6SM BKN090=

USA.gov is the U.S. government's official web portal to all federal, state and local government web resources and services.